Terminal Aerodrome Forecast
Issued by NWS

Home | Current Version | Previous Version | Text Only | Print | Product List | Glossary On
Versions: 1 2 3 4 5 6 7 8 9 10 11 12 13 14 15 16 17 18
000
FTUS41 KPBZ 152300
TAFZZV
TAF
KZZV 152320Z 1600/1624 19005KT P6SM OVC100
     FM160300 23004KT 6SM -RA OVC050
     FM160700 33002KT P6SM OVC015
     FM161600 01003KT P6SM BKN035
     FM162000 36003KT P6SM SKC=

USA.gov is the U.S. government's official web portal to all federal, state and local government web resources and services.